sensor_id;sensor_type;location;lat;lon;timestamp;P1;durP1;ratioP1;P2;durP2;ratioP2
65825;SDS011;52586;-43.152;172.732;2023-06-04T00:00:43;1.20;;;1.10;;
65825;SDS011;52586;-43.152;172.732;2023-06-04T00:03:15;1.70;;;1.15;;
65825;SDS011;52586;-43.152;172.732;2023-06-04T00:05:46;1.20;;;1.10;;
65825;SDS011;52586;-43.152;172.732;2023-06-04T00:08:17;1.08;;;1.05;;
65825;SDS011;52586;-43.152;172.732;2023-06-04T00:10:47;1.40;;;1.30;;
65825;SDS011;52586;-43.152;172.732;2023-06-04T00:13:18;1.10;;;1.05;;
65825;SDS011;52586;-43.152;172.732;2023-06-04T00:15:49;1.40;;;1.10;;
65825;SDS011;52586;-43.152;172.732;2023-06-04T00:18:21;1.65;;;1.35;;
65825;SDS011;52586;-43.152;172.732;2023-06-04T00:20:52;1.40;;;1.30;;
65825;SDS011;52586;-43.152;172.732;2023-06-04T00:23:22;1.30;;;1.20;;
65825;SDS011;52586;-43.152;172.732;2023-06-04T00:25:53;2.90;;;1.40;;
65825;SDS011;52586;-43.152;172.732;2023-06-04T00:28:24;2.55;;;1.10;;
65825;SDS011;52586;-43.152;172.732;2023-06-04T00:30:54;1.50;;;1.20;;
65825;SDS011;52586;-43.152;172.732;2023-06-04T00:33:27;1.80;;;1.00;;
65825;SDS011;52586;-43.152;172.732;2023-06-04T00:35:57;1.77;;;0.98;;
65825;SDS011;52586;-43.152;172.732;2023-06-04T00:38:28;0.90;;;0.90;;
65825;SDS011;52586;-43.152;172.732;2023-06-04T00:40:59;2.03;;;0.90;;
65825;SDS011;52586;-43.152;172.732;2023-06-04T00:43:29;0.98;;;0.90;;
65825;SDS011;52586;-43.152;172.732;2023-06-04T00:46:02;1.55;;;1.30;;
65825;SDS011;52586;-43.152;172.732;2023-06-04T00:48:34;2.28;;;1.30;;
65825;SDS011;52586;-43.152;172.732;2023-06-04T00:51:05;1.75;;;1.50;;
65825;SDS011;52586;-43.152;172.732;2023-06-04T00:53:36;4.10;;;1.65;;
65825;SDS011;52586;-43.152;172.732;2023-06-04T00:56:06;3.45;;;1.80;;
65825;SDS011;52586;-43.152;172.732;2023-06-04T00:58:38;4.03;;;1.60;;
65825;SDS011;52586;-43.152;172.732;2023-06-04T01:01:17;3.08;;;1.65;;
65825;SDS011;52586;-43.152;172.732;2023-06-04T01:03:57;2.50;;;1.60;;
65825;SDS011;52586;-43.152;172.732;2023-06-04T01:06:31;3.70;;;1.50;;
65825;SDS011;52586;-43.152;172.732;2023-06-04T01:09:07;3.00;;;1.55;;
65825;SDS011;52586;-43.152;172.732;2023-06-04T01:11:38;3.50;;;1.60;;
65825;SDS011;52586;-43.152;172.732;2023-06-04T01:14:09;4.25;;;1.80;;
65825;SDS011;52586;-43.152;172.732;2023-06-04T01:16:43;3.70;;;1.73;;
65825;SDS011;52586;-43.152;172.732;2023-06-04T01:19:22;2.67;;;1.73;;
65825;SDS011;52586;-43.152;172.732;2023-06-04T01:22:16;4.85;;;1.80;;
65825;SDS011;52586;-43.152;172.732;2023-06-04T01:24:57;2.40;;;1.65;;
65825;SDS011;52586;-43.152;172.732;2023-06-04T01:27:31;2.83;;;1.55;;
65825;SDS011;52586;-43.152;172.732;2023-06-04T01:30:03;1.80;;;1.55;;
65825;SDS011;52586;-43.152;172.732;2023-06-04T01:32:36;3.83;;;1.63;;
65825;SDS011;52586;-43.152;172.732;2023-06-04T01:35:10;3.25;;;1.73;;
65825;SDS011;52586;-43.152;172.732;2023-06-04T01:37:41;3.40;;;1.70;;
65825;SDS011;52586;-43.152;172.732;2023-06-04T01:40:12;3.45;;;1.63;;
65825;SDS011;52586;-43.152;172.732;2023-06-04T01:42:43;2.05;;;1.52;;
65825;SDS011;52586;-43.152;172.732;2023-06-04T01:45:14;2.20;;;1.60;;
65825;SDS011;52586;-43.152;172.732;2023-06-04T01:47:45;2.20;;;1.40;;
65825;SDS011;52586;-43.152;172.732;2023-06-04T01:50:17;3.42;;;1.80;;
65825;SDS011;52586;-43.152;172.732;2023-06-04T01:52:49;1.85;;;1.52;;
65825;SDS011;52586;-43.152;172.732;2023-06-04T01:55:19;6.28;;;1.75;;
65825;SDS011;52586;-43.152;172.732;2023-06-04T01:57:51;1.83;;;1.50;;
65825;SDS011;52586;-43.152;172.732;2023-06-04T02:00:22;1.77;;;1.40;;
65825;SDS011;52586;-43.152;172.732;2023-06-04T02:02:52;2.13;;;1.55;;
65825;SDS011;52586;-43.152;172.732;2023-06-04T02:05:26;1.90;;;1.40;;
65825;SDS011;52586;-43.152;172.732;2023-06-04T02:07:57;1.30;;;1.17;;
65825;SDS011;52586;-43.152;172.732;2023-06-04T02:10:32;4.82;;;1.63;;
65825;SDS011;52586;-43.152;172.732;2023-06-04T02:13:03;3.17;;;1.65;;
65825;SDS011;52586;-43.152;172.732;2023-06-04T02:15:34;2.03;;;1.60;;
65825;SDS011;52586;-43.152;172.732;2023-06-04T02:18:11;1.85;;;1.40;;
65825;SDS011;52586;-43.152;172.732;2023-06-04T02:20:46;2.03;;;1.45;;
65825;SDS011;52586;-43.152;172.732;2023-06-04T02:23:18;1.67;;;1.48;;
65825;SDS011;52586;-43.152;172.732;2023-06-04T02:25:49;3.15;;;1.85;;
65825;SDS011;52586;-43.152;172.732;2023-06-04T02:28:19;1.70;;;1.60;;
65825;SDS011;52586;-43.152;172.732;2023-06-04T02:30:50;2.70;;;1.85;;
65825;SDS011;52586;-43.152;172.732;2023-06-04T02:33:21;2.08;;;1.45;;
65825;SDS011;52586;-43.152;172.732;2023-06-04T02:35:54;2.50;;;1.77;;
65825;SDS011;52586;-43.152;172.732;2023-06-04T02:38:24;1.73;;;1.63;;
65825;SDS011;52586;-43.152;172.732;2023-06-04T02:40:55;2.33;;;1.50;;
65825;SDS011;52586;-43.152;172.732;2023-06-04T02:43:26;2.50;;;1.50;;
65825;SDS011;52586;-43.152;172.732;2023-06-04T02:45:56;3.17;;;1.70;;
65825;SDS011;52586;-43.152;172.732;2023-06-04T02:48:27;1.95;;;1.73;;
65825;SDS011;52586;-43.152;172.732;2023-06-04T02:50:59;3.30;;;1.67;;
65825;SDS011;52586;-43.152;172.732;2023-06-04T02:53:31;3.10;;;1.90;;
65825;SDS011;52586;-43.152;172.732;2023-06-04T02:56:02;2.63;;;1.80;;
65825;SDS011;52586;-43.152;172.732;2023-06-04T02:58:32;1.73;;;1.63;;
65825;SDS011;52586;-43.152;172.732;2023-06-04T03:01:05;3.13;;;2.10;;
65825;SDS011;52586;-43.152;172.732;2023-06-04T03:03:36;2.53;;;1.70;;
65825;SDS011;52586;-43.152;172.732;2023-06-04T03:06:09;2.13;;;1.65;;
65825;SDS011;52586;-43.152;172.732;2023-06-04T03:08:40;2.10;;;1.83;;
65825;SDS011;52586;-43.152;172.732;2023-06-04T03:11:11;4.55;;;2.20;;
65825;SDS011;52586;-43.152;172.732;2023-06-04T03:13:42;2.05;;;1.80;;
65825;SDS011;52586;-43.152;172.732;2023-06-04T03:16:12;2.47;;;2.00;;
65825;SDS011;52586;-43.152;172.732;2023-06-04T03:18:43;2.40;;;1.58;;
65825;SDS011;52586;-43.152;172.732;2023-06-04T03:21:16;2.65;;;2.03;;
65825;SDS011;52586;-43.152;172.732;2023-06-04T03:23:47;2.20;;;2.00;;
65825;SDS011;52586;-43.152;172.732;2023-06-04T03:26:18;2.15;;;1.60;;
65825;SDS011;52586;-43.152;172.732;2023-06-04T03:29:02;2.28;;;2.08;;
65825;SDS011;52586;-43.152;172.732;2023-06-04T03:31:34;2.67;;;2.08;;
65825;SDS011;52586;-43.152;172.732;2023-06-04T03:34:06;3.22;;;1.95;;
65825;SDS011;52586;-43.152;172.732;2023-06-04T03:36:40;2.83;;;1.90;;
65825;SDS011;52586;-43.152;172.732;2023-06-04T03:39:10;2.15;;;2.00;;
65825;SDS011;52586;-43.152;172.732;2023-06-04T03:41:41;2.17;;;1.98;;
65825;SDS011;52586;-43.152;172.732;2023-06-04T03:44:12;2.03;;;1.90;;
65825;SDS011;52586;-43.152;172.732;2023-06-04T03:46:44;2.33;;;2.08;;
65825;SDS011;52586;-43.152;172.732;2023-06-04T03:49:17;2.00;;;1.90;;
65825;SDS011;52586;-43.152;172.732;2023-06-04T03:51:51;2.38;;;2.10;;
65825;SDS011;52586;-43.152;172.732;2023-06-04T03:54:21;2.20;;;2.00;;
65825;SDS011;52586;-43.152;172.732;2023-06-04T03:56:52;2.67;;;2.08;;
65825;SDS011;52586;-43.152;172.732;2023-06-04T03:59:23;2.42;;;2.03;;
65825;SDS011;52586;-43.152;172.732;2023-06-04T04:01:53;2.60;;;2.22;;
65825;SDS011;52586;-43.152;172.732;2023-06-04T04:04:24;3.50;;;2.20;;
65825;SDS011;52586;-43.152;172.732;2023-06-04T04:06:56;2.95;;;2.10;;
65825;SDS011;52586;-43.152;172.732;2023-06-04T04:09:28;2.30;;;2.10;;
65825;SDS011;52586;-43.152;172.732;2023-06-04T04:12:00;2.65;;;2.13;;
65825;SDS011;52586;-43.152;172.732;2023-06-04T04:14:37;2.58;;;2.38;;
65825;SDS011;52586;-43.152;172.732;2023-06-04T04:17:08;2.60;;;2.30;;
65825;SDS011;52586;-43.152;172.732;2023-06-04T04:19:39;2.65;;;2.38;;
65825;SDS011;52586;-43.152;172.732;2023-06-04T04:22:11;2.40;;;2.20;;
65825;SDS011;52586;-43.152;172.732;2023-06-04T04:24:43;2.55;;;2.20;;
65825;SDS011;52586;-43.152;172.732;2023-06-04T04:27:14;2.53;;;2.17;;
65825;SDS011;52586;-43.152;172.732;2023-06-04T04:29:44;3.03;;;2.25;;
65825;SDS011;52586;-43.152;172.732;2023-06-04T04:32:15;3.25;;;2.45;;
65825;SDS011;52586;-43.152;172.732;2023-06-04T04:34:52;3.20;;;2.40;;
65825;SDS011;52586;-43.152;172.732;2023-06-04T04:37:25;2.20;;;1.95;;
65825;SDS011;52586;-43.152;172.732;2023-06-04T04:39:56;2.45;;;2.25;;
65825;SDS011;52586;-43.152;172.732;2023-06-04T04:42:26;2.97;;;2.20;;
65825;SDS011;52586;-43.152;172.732;2023-06-04T04:44:57;2.55;;;2.35;;
65825;SDS011;52586;-43.152;172.732;2023-06-04T04:47:27;2.20;;;2.00;;
65825;SDS011;52586;-43.152;172.732;2023-06-04T04:49:58;3.15;;;2.50;;
65825;SDS011;52586;-43.152;172.732;2023-06-04T04:52:31;2.50;;;2.30;;
65825;SDS011;52586;-43.152;172.732;2023-06-04T04:55:01;2.70;;;2.28;;
65825;SDS011;52586;-43.152;172.732;2023-06-04T04:57:32;2.70;;;2.50;;
65825;SDS011;52586;-43.152;172.732;2023-06-04T05:00:03;2.72;;;2.50;;
65825;SDS011;52586;-43.152;172.732;2023-06-04T05:02:35;2.42;;;2.22;;
65825;SDS011;52586;-43.152;172.732;2023-06-04T05:05:06;2.50;;;2.30;;
65825;SDS011;52586;-43.152;172.732;2023-06-04T05:07:40;2.50;;;2.30;;
65825;SDS011;52586;-43.152;172.732;2023-06-04T05:10:13;2.42;;;2.22;;
65825;SDS011;52586;-43.152;172.732;2023-06-04T05:12:50;2.97;;;2.70;;
65825;SDS011;52586;-43.152;172.732;2023-06-04T05:15:22;2.47;;;2.28;;
65825;SDS011;52586;-43.152;172.732;2023-06-04T05:17:52;3.15;;;2.58;;
65825;SDS011;52586;-43.152;172.732;2023-06-04T05:20:26;2.50;;;2.15;;
65825;SDS011;52586;-43.152;172.732;2023-06-04T05:22:59;2.67;;;2.33;;
65825;SDS011;52586;-43.152;172.732;2023-06-04T05:25:30;2.83;;;2.63;;
65825;SDS011;52586;-43.152;172.732;2023-06-04T05:28:01;3.60;;;2.47;;
65825;SDS011;52586;-43.152;172.732;2023-06-04T05:30:32;3.03;;;2.30;;
65825;SDS011;52586;-43.152;172.732;2023-06-04T05:33:07;2.72;;;2.17;;
65825;SDS011;52586;-43.152;172.732;2023-06-04T05:35:44;2.78;;;2.58;;
65825;SDS011;52586;-43.152;172.732;2023-06-04T05:38:16;2.70;;;2.50;;
65825;SDS011;52586;-43.152;172.732;2023-06-04T05:40:47;3.35;;;2.70;;
65825;SDS011;52586;-43.152;172.732;2023-06-04T05:43:18;2.83;;;2.63;;
65825;SDS011;52586;-43.152;172.732;2023-06-04T05:45:49;2.92;;;2.63;;
65825;SDS011;52586;-43.152;172.732;2023-06-04T05:48:19;2.78;;;2.17;;
65825;SDS011;52586;-43.152;172.732;2023-06-04T05:50:50;3.45;;;2.40;;
65825;SDS011;52586;-43.152;172.732;2023-06-04T05:53:23;2.58;;;2.38;;
65825;SDS011;52586;-43.152;172.732;2023-06-04T05:55:53;2.50;;;2.25;;
65825;SDS011;52586;-43.152;172.732;2023-06-04T05:58:24;3.03;;;2.60;;
65825;SDS011;52586;-43.152;172.732;2023-06-04T06:00:54;3.78;;;2.78;;
65825;SDS011;52586;-43.152;172.732;2023-06-04T06:03:25;2.85;;;2.40;;
65825;SDS011;52586;-43.152;172.732;2023-06-04T06:05:56;3.17;;;2.40;;
65825;SDS011;52586;-43.152;172.732;2023-06-04T06:08:30;2.83;;;2.50;;
65825;SDS011;52586;-43.152;172.732;2023-06-04T06:11:00;2.97;;;2.33;;
65825;SDS011;52586;-43.152;172.732;2023-06-04T06:13:31;4.18;;;2.90;;
65825;SDS011;52586;-43.152;172.732;2023-06-04T06:16:02;2.90;;;2.55;;
65825;SDS011;52586;-43.152;172.732;2023-06-04T06:18:33;2.80;;;2.33;;
65825;SDS011;52586;-43.152;172.732;2023-06-04T06:21:03;3.80;;;3.00;;
65825;SDS011;52586;-43.152;172.732;2023-06-04T06:23:36;3.42;;;2.50;;
65825;SDS011;52586;-43.152;172.732;2023-06-04T06:26:06;3.45;;;2.58;;
65825;SDS011;52586;-43.152;172.732;2023-06-04T06:28:40;2.80;;;2.40;;
65825;SDS011;52586;-43.152;172.732;2023-06-04T06:31:11;3.05;;;2.70;;
65825;SDS011;52586;-43.152;172.732;2023-06-04T06:33:42;3.08;;;2.30;;
65825;SDS011;52586;-43.152;172.732;2023-06-04T06:36:12;2.90;;;2.60;;
65825;SDS011;52586;-43.152;172.732;2023-06-04T06:38:46;3.15;;;2.72;;
65825;SDS011;52586;-43.152;172.732;2023-06-04T06:41:17;3.25;;;2.70;;
65825;SDS011;52586;-43.152;172.732;2023-06-04T06:43:48;2.55;;;2.35;;
65825;SDS011;52586;-43.152;172.732;2023-06-04T06:46:18;3.58;;;2.55;;
65825;SDS011;52586;-43.152;172.732;2023-06-04T06:48:49;3.10;;;2.38;;
65825;SDS011;52586;-43.152;172.732;2023-06-04T06:51:20;3.88;;;2.30;;
65825;SDS011;52586;-43.152;172.732;2023-06-04T06:53:52;3.28;;;2.28;;
65825;SDS011;52586;-43.152;172.732;2023-06-04T06:56:23;3.03;;;2.45;;
65825;SDS011;52586;-43.152;172.732;2023-06-04T06:58:53;2.72;;;2.08;;
65825;SDS011;52586;-43.152;172.732;2023-06-04T07:01:24;2.80;;;2.38;;
65825;SDS011;52586;-43.152;172.732;2023-06-04T07:03:55;3.17;;;2.60;;
65825;SDS011;52586;-43.152;172.732;2023-06-04T07:06:25;2.78;;;2.53;;
65825;SDS011;52586;-43.152;172.732;2023-06-04T07:08:58;2.40;;;2.17;;
65825;SDS011;52586;-43.152;172.732;2023-06-04T07:11:29;3.28;;;2.40;;
65825;SDS011;52586;-43.152;172.732;2023-06-04T07:14:00;4.40;;;2.60;;
65825;SDS011;52586;-43.152;172.732;2023-06-04T07:16:31;2.92;;;2.25;;
65825;SDS011;52586;-43.152;172.732;2023-06-04T07:19:02;2.67;;;2.10;;
65825;SDS011;52586;-43.152;172.732;2023-06-04T07:21:33;3.22;;;2.67;;
65825;SDS011;52586;-43.152;172.732;2023-06-04T07:24:09;2.47;;;2.00;;
65825;SDS011;52586;-43.152;172.732;2023-06-04T07:26:39;3.03;;;2.42;;
65825;SDS011;52586;-43.152;172.732;2023-06-04T07:29:10;2.63;;;2.08;;
65825;SDS011;52586;-43.152;172.732;2023-06-04T07:31:41;2.85;;;2.15;;
65825;SDS011;52586;-43.152;172.732;2023-06-04T07:34:12;2.83;;;2.63;;
65825;SDS011;52586;-43.152;172.732;2023-06-04T07:36:42;3.08;;;2.55;;
65825;SDS011;52586;-43.152;172.732;2023-06-04T07:39:15;2.70;;;2.30;;
65825;SDS011;52586;-43.152;172.732;2023-06-04T07:41:45;2.53;;;2.20;;
65825;SDS011;52586;-43.152;172.732;2023-06-04T07:44:16;2.42;;;2.22;;
65825;SDS011;52586;-43.152;172.732;2023-06-04T07:46:47;2.70;;;2.20;;
65825;SDS011;52586;-43.152;172.732;2023-06-04T07:49:17;2.53;;;2.33;;
65825;SDS011;52586;-43.152;172.732;2023-06-04T07:51:49;3.53;;;2.20;;
65825;SDS011;52586;-43.152;172.732;2023-06-04T07:54:22;2.33;;;2.08;;
65825;SDS011;52586;-43.152;172.732;2023-06-04T07:56:53;2.30;;;2.10;;
65825;SDS011;52586;-43.152;172.732;2023-06-04T07:59:24;2.53;;;2.15;;
65825;SDS011;52586;-43.152;172.732;2023-06-04T08:01:55;2.67;;;2.03;;
65825;SDS011;52586;-43.152;172.732;2023-06-04T08:04:26;2.35;;;2.00;;
65825;SDS011;52586;-43.152;172.732;2023-06-04T08:06:56;2.28;;;2.08;;
65825;SDS011;52586;-43.152;172.732;2023-06-04T08:09:29;2.13;;;1.92;;
65825;SDS011;52586;-43.152;172.732;2023-06-04T08:12:00;2.40;;;2.00;;
65825;SDS011;52586;-43.152;172.732;2023-06-04T08:14:31;2.20;;;2.00;;
65825;SDS011;52586;-43.152;172.732;2023-06-04T08:17:01;2.92;;;1.73;;
65825;SDS011;52586;-43.152;172.732;2023-06-04T08:19:32;2.40;;;2.10;;
65825;SDS011;52586;-43.152;172.732;2023-06-04T08:22:05;2.50;;;2.30;;
65825;SDS011;52586;-43.152;172.732;2023-06-04T08:24:39;2.10;;;1.90;;
65825;SDS011;52586;-43.152;172.732;2023-06-04T08:27:10;2.22;;;1.80;;
65825;SDS011;52586;-43.152;172.732;2023-06-04T08:29:40;1.63;;;1.52;;
65825;SDS011;52586;-43.152;172.732;2023-06-04T08:32:11;2.13;;;1.85;;
65825;SDS011;52586;-43.152;172.732;2023-06-04T08:34:42;2.65;;;2.40;;
65825;SDS011;52586;-43.152;172.732;2023-06-04T08:37:12;2.20;;;2.00;;
65825;SDS011;52586;-43.152;172.732;2023-06-04T08:39:45;2.05;;;1.90;;
65825;SDS011;52586;-43.152;172.732;2023-06-04T08:42:17;2.80;;;2.03;;
65825;SDS011;52586;-43.152;172.732;2023-06-04T08:44:57;2.83;;;1.90;;
65825;SDS011;52586;-43.152;172.732;2023-06-04T08:47:28;2.55;;;1.83;;
65825;SDS011;52586;-43.152;172.732;2023-06-04T08:49:59;2.03;;;1.80;;
65825;SDS011;52586;-43.152;172.732;2023-06-04T08:52:30;1.92;;;1.70;;
65825;SDS011;52586;-43.152;172.732;2023-06-04T08:55:03;3.70;;;1.92;;
65825;SDS011;52586;-43.152;172.732;2023-06-04T08:57:35;2.05;;;1.70;;
65825;SDS011;52586;-43.152;172.732;2023-06-04T09:00:06;2.42;;;1.98;;
65825;SDS011;52586;-43.152;172.732;2023-06-04T09:02:38;2.33;;;2.10;;
65825;SDS011;52586;-43.152;172.732;2023-06-04T09:05:09;2.05;;;1.85;;
65825;SDS011;52586;-43.152;172.732;2023-06-04T09:07:45;2.08;;;1.88;;
65825;SDS011;52586;-43.152;172.732;2023-06-04T09:10:19;2.47;;;1.90;;
65825;SDS011;52586;-43.152;172.732;2023-06-04T09:12:54;1.90;;;1.80;;
65825;SDS011;52586;-43.152;172.732;2023-06-04T09:15:25;3.00;;;1.60;;
65825;SDS011;52586;-43.152;172.732;2023-06-04T09:17:56;1.95;;;1.85;;
65825;SDS011;52586;-43.152;172.732;2023-06-04T09:20:27;2.00;;;1.80;;
65825;SDS011;52586;-43.152;172.732;2023-06-04T09:22:58;2.05;;;1.85;;
65825;SDS011;52586;-43.152;172.732;2023-06-04T09:25:31;2.25;;;2.05;;
65825;SDS011;52586;-43.152;172.732;2023-06-04T09:28:05;1.70;;;1.58;;
65825;SDS011;52586;-43.152;172.732;2023-06-04T09:30:36;2.00;;;1.67;;
65825;SDS011;52586;-43.152;172.732;2023-06-04T09:33:07;2.08;;;1.67;;
65825;SDS011;52586;-43.152;172.732;2023-06-04T09:35:38;2.28;;;1.63;;
65825;SDS011;52586;-43.152;172.732;2023-06-04T09:38:09;1.88;;;1.77;;
65825;SDS011;52586;-43.152;172.732;2023-06-04T09:40:41;1.98;;;1.73;;
65825;SDS011;52586;-43.152;172.732;2023-06-04T09:43:20;1.70;;;1.60;;
65825;SDS011;52586;-43.152;172.732;2023-06-04T09:45:51;3.30;;;1.83;;
65825;SDS011;52586;-43.152;172.732;2023-06-04T09:48:22;2.20;;;1.85;;
65825;SDS011;52586;-43.152;172.732;2023-06-04T09:50:53;2.08;;;1.88;;
65825;SDS011;52586;-43.152;172.732;2023-06-04T09:53:34;2.10;;;1.73;;
65825;SDS011;52586;-43.152;172.732;2023-06-04T09:56:07;1.75;;;1.50;;
65825;SDS011;52586;-43.152;172.732;2023-06-04T09:58:39;1.88;;;1.70;;
65825;SDS011;52586;-43.152;172.732;2023-06-04T10:01:12;1.80;;;1.55;;
65825;SDS011;52586;-43.152;172.732;2023-06-04T10:03:46;1.80;;;1.67;;
65825;SDS011;52586;-43.152;172.732;2023-06-04T10:06:19;3.33;;;1.92;;
65825;SDS011;52586;-43.152;172.732;2023-06-04T10:08:51;2.83;;;1.80;;
65825;SDS011;52586;-43.152;172.732;2023-06-04T10:11:31;2.60;;;1.55;;
65825;SDS011;52586;-43.152;172.732;2023-06-04T10:14:06;2.85;;;1.80;;
65825;SDS011;52586;-43.152;172.732;2023-06-04T10:16:44;2.13;;;1.75;;
65825;SDS011;52586;-43.152;172.732;2023-06-04T10:19:16;2.83;;;1.75;;
65825;SDS011;52586;-43.152;172.732;2023-06-04T10:21:49;1.75;;;1.65;;
65825;SDS011;52586;-43.152;172.732;2023-06-04T10:24:19;1.90;;;1.70;;
65825;SDS011;52586;-43.152;172.732;2023-06-04T10:26:54;1.50;;;1.40;;
65825;SDS011;52586;-43.152;172.732;2023-06-04T10:29:27;1.73;;;1.63;;
65825;SDS011;52586;-43.152;172.732;2023-06-04T10:32:00;1.88;;;1.50;;
65825;SDS011;52586;-43.152;172.732;2023-06-04T10:34:31;1.63;;;1.52;;
65825;SDS011;52586;-43.152;172.732;2023-06-04T10:37:03;2.05;;;1.40;;
65825;SDS011;52586;-43.152;172.732;2023-06-04T10:39:34;1.88;;;1.52;;
65825;SDS011;52586;-43.152;172.732;2023-06-04T10:42:06;1.58;;;1.45;;
65825;SDS011;52586;-43.152;172.732;2023-06-04T10:44:43;2.28;;;1.60;;
65825;SDS011;52586;-43.152;172.732;2023-06-04T10:47:21;1.95;;;1.70;;
65825;SDS011;52586;-43.152;172.732;2023-06-04T10:49:53;2.63;;;1.80;;
65825;SDS011;52586;-43.152;172.732;2023-06-04T10:52:24;2.72;;;1.70;;
65825;SDS011;52586;-43.152;172.732;2023-06-04T10:55:02;1.77;;;1.50;;
65825;SDS011;52586;-43.152;172.732;2023-06-04T10:57:36;1.60;;;1.33;;
65825;SDS011;52586;-43.152;172.732;2023-06-04T11:00:07;3.70;;;1.80;;
65825;SDS011;52586;-43.152;172.732;2023-06-04T11:02:49;1.98;;;1.55;;
65825;SDS011;52586;-43.152;172.732;2023-06-04T11:05:20;2.58;;;1.80;;
65825;SDS011;52586;-43.152;172.732;2023-06-04T11:07:51;1.88;;;1.60;;
65825;SDS011;52586;-43.152;172.732;2023-06-04T11:10:29;2.00;;;1.80;;
65825;SDS011;52586;-43.152;172.732;2023-06-04T11:13:04;1.75;;;1.63;;
65825;SDS011;52586;-43.152;172.732;2023-06-04T11:15:37;2.75;;;1.63;;
65825;SDS011;52586;-43.152;172.732;2023-06-04T11:18:12;1.90;;;1.70;;
65825;SDS011;52586;-43.152;172.732;2023-06-04T11:20:44;2.17;;;1.52;;
65825;SDS011;52586;-43.152;172.732;2023-06-04T11:23:15;2.50;;;1.80;;
65825;SDS011;52586;-43.152;172.732;2023-06-04T11:25:46;2.22;;;1.60;;
65825;SDS011;52586;-43.152;172.732;2023-06-04T11:28:22;1.30;;;1.20;;
65825;SDS011;52586;-43.152;172.732;2023-06-04T11:30:56;2.00;;;1.73;;
65825;SDS011;52586;-43.152;172.732;2023-06-04T11:33:29;2.63;;;1.52;;
65825;SDS011;52586;-43.152;172.732;2023-06-04T11:35:59;2.38;;;1.60;;
65825;SDS011;52586;-43.152;172.732;2023-06-04T11:38:30;1.98;;;1.60;;
65825;SDS011;52586;-43.152;172.732;2023-06-04T11:41:01;3.60;;;1.88;;
65825;SDS011;52586;-43.152;172.732;2023-06-04T11:43:35;1.83;;;1.63;;
65825;SDS011;52586;-43.152;172.732;2023-06-04T11:46:06;1.92;;;1.55;;
65825;SDS011;52586;-43.152;172.732;2023-06-04T11:48:37;2.50;;;1.90;;
65825;SDS011;52586;-43.152;172.732;2023-06-04T11:51:08;2.10;;;1.55;;
65825;SDS011;52586;-43.152;172.732;2023-06-04T11:53:38;2.67;;;1.70;;
65825;SDS011;52586;-43.152;172.732;2023-06-04T11:56:09;2.00;;;1.50;;
65825;SDS011;52586;-43.152;172.732;2023-06-04T11:58:42;2.78;;;1.83;;
65825;SDS011;52586;-43.152;172.732;2023-06-04T12:01:13;2.60;;;1.67;;
65825;SDS011;52586;-43.152;172.732;2023-06-04T12:03:44;2.65;;;1.60;;
65825;SDS011;52586;-43.152;172.732;2023-06-04T12:06:15;1.52;;;1.42;;
65825;SDS011;52586;-43.152;172.732;2023-06-04T12:08:50;3.33;;;1.83;;
65825;SDS011;52586;-43.152;172.732;2023-06-04T12:11:28;2.78;;;2.00;;
65825;SDS011;52586;-43.152;172.732;2023-06-04T12:14:03;1.60;;;1.48;;
65825;SDS011;52586;-43.152;172.732;2023-06-04T12:16:35;3.05;;;1.85;;
65825;SDS011;52586;-43.152;172.732;2023-06-04T12:19:06;2.08;;;1.58;;
65825;SDS011;52586;-43.152;172.732;2023-06-04T12:21:37;2.05;;;1.70;;
65825;SDS011;52586;-43.152;172.732;2023-06-04T12:24:09;2.42;;;1.75;;
65825;SDS011;52586;-43.152;172.732;2023-06-04T12:26:41;2.00;;;1.65;;
65825;SDS011;52586;-43.152;172.732;2023-06-04T12:29:14;2.22;;;1.40;;
65825;SDS011;52586;-43.152;172.732;2023-06-04T12:31:46;3.35;;;1.98;;
65825;SDS011;52586;-43.152;172.732;2023-06-04T12:34:17;2.50;;;1.60;;
65825;SDS011;52586;-43.152;172.732;2023-06-04T12:36:47;2.70;;;1.52;;
65825;SDS011;52586;-43.152;172.732;2023-06-04T12:39:18;2.30;;;1.60;;
65825;SDS011;52586;-43.152;172.732;2023-06-04T12:41:48;2.95;;;1.50;;
65825;SDS011;52586;-43.152;172.732;2023-06-04T12:44:21;1.83;;;1.50;;
65825;SDS011;52586;-43.152;172.732;2023-06-04T12:46:52;3.00;;;1.67;;
65825;SDS011;52586;-43.152;172.732;2023-06-04T12:49:22;1.77;;;1.45;;
65825;SDS011;52586;-43.152;172.732;2023-06-04T12:57:59;1.88;;;1.50;;
65825;SDS011;52586;-43.152;172.732;2023-06-04T13:00:32;3.30;;;1.67;;
65825;SDS011;52586;-43.152;172.732;2023-06-04T13:03:02;2.08;;;1.50;;
65825;SDS011;52586;-43.152;172.732;2023-06-04T13:05:34;2.40;;;1.38;;
65825;SDS011;52586;-43.152;172.732;2023-06-04T13:08:05;2.67;;;1.75;;
65825;SDS011;52586;-43.152;172.732;2023-06-04T13:10:36;2.60;;;1.52;;
65825;SDS011;52586;-43.152;172.732;2023-06-04T13:13:07;2.65;;;1.55;;
65825;SDS011;52586;-43.152;172.732;2023-06-04T13:15:39;1.90;;;1.42;;
65825;SDS011;52586;-43.152;172.732;2023-06-04T13:18:10;1.88;;;1.33;;
65825;SDS011;52586;-43.152;172.732;2023-06-04T13:20:41;2.45;;;1.73;;
65825;SDS011;52586;-43.152;172.732;2023-06-04T13:23:16;2.58;;;1.65;;
65825;SDS011;52586;-43.152;172.732;2023-06-04T13:25:46;3.22;;;1.80;;
65825;SDS011;52586;-43.152;172.732;2023-06-04T13:28:17;2.03;;;1.50;;
65825;SDS011;52586;-43.152;172.732;2023-06-04T13:30:50;1.98;;;1.50;;
65825;SDS011;52586;-43.152;172.732;2023-06-04T13:33:20;1.88;;;1.50;;
65825;SDS011;52586;-43.152;172.732;2023-06-04T13:35:51;2.58;;;1.52;;
65825;SDS011;52586;-43.152;172.732;2023-06-04T13:38:21;3.90;;;1.92;;
65825;SDS011;52586;-43.152;172.732;2023-06-04T13:40:52;3.53;;;1.60;;
65825;SDS011;52586;-43.152;172.732;2023-06-04T13:43:23;2.53;;;1.55;;
65825;SDS011;52586;-43.152;172.732;2023-06-04T13:45:55;2.10;;;1.42;;
65825;SDS011;52586;-43.152;172.732;2023-06-04T13:48:26;3.03;;;1.60;;
65825;SDS011;52586;-43.152;172.732;2023-06-04T13:50:57;1.80;;;1.70;;
65825;SDS011;52586;-43.152;172.732;2023-06-04T13:53:27;2.58;;;1.58;;
65825;SDS011;52586;-43.152;172.732;2023-06-04T13:55:58;2.22;;;1.40;;
65825;SDS011;52586;-43.152;172.732;2023-06-04T13:58:29;1.90;;;1.50;;
65825;SDS011;52586;-43.152;172.732;2023-06-04T14:01:01;2.55;;;1.20;;
65825;SDS011;52586;-43.152;172.732;2023-06-04T14:03:32;2.53;;;1.50;;
65825;SDS011;52586;-43.152;172.732;2023-06-04T14:06:03;3.08;;;1.50;;
65825;SDS011;52586;-43.152;172.732;2023-06-04T14:08:33;1.75;;;1.40;;
65825;SDS011;52586;-43.152;172.732;2023-06-04T14:11:04;2.83;;;1.63;;
65825;SDS011;52586;-43.152;172.732;2023-06-04T14:13:34;3.22;;;1.77;;
65825;SDS011;52586;-43.152;172.732;2023-06-04T14:16:09;2.40;;;1.50;;
65825;SDS011;52586;-43.152;172.732;2023-06-04T14:18:39;2.60;;;1.50;;
65825;SDS011;52586;-43.152;172.732;2023-06-04T14:21:10;2.95;;;1.50;;
65825;SDS011;52586;-43.152;172.732;2023-06-04T14:23:41;1.63;;;1.30;;
65825;SDS011;52586;-43.152;172.732;2023-06-04T14:26:11;2.30;;;1.23;;
65825;SDS011;52586;-43.152;172.732;2023-06-04T14:28:43;3.15;;;1.45;;
65825;SDS011;52586;-43.152;172.732;2023-06-04T14:31:16;2.60;;;1.60;;
65825;SDS011;52586;-43.152;172.732;2023-06-04T14:33:47;1.67;;;1.33;;
65825;SDS011;52586;-43.152;172.732;2023-06-04T14:36:17;2.17;;;1.27;;
65825;SDS011;52586;-43.152;172.732;2023-06-04T14:38:48;1.83;;;1.25;;
65825;SDS011;52586;-43.152;172.732;2023-06-04T14:41:19;2.25;;;1.25;;